sensor_id;sensor_type;location;lat;lon;timestamp;pressure;altitude;pressure_sealevel;temperature;humidity
77979;BME280;67169;50.268;8.694;2023-05-24T00:01:21;100180.06;;;9.38;69.66
77979;BME280;67169;50.268;8.694;2023-05-24T00:03:50;100190.81;;;9.38;69.77
77979;BME280;67169;50.268;8.694;2023-05-24T00:06:17;100160.84;;;9.21;68.56
77979;BME280;67169;50.268;8.694;2023-05-24T00:08:44;100180.28;;;9.31;68.88
77979;BME280;67169;50.268;8.694;2023-05-24T00:11:11;100189.06;;;9.36;69.11
77979;BME280;67169;50.268;8.694;2023-05-24T00:13:38;100193.75;;;9.29;69.41
77979;BME280;67169;50.268;8.694;2023-05-24T00:16:06;100194.66;;;9.28;69.32
77979;BME280;67169;50.268;8.694;2023-05-24T00:18:32;100191.16;;;9.26;69.79
77979;BME280;67169;50.268;8.694;2023-05-24T00:20:59;100194.81;;;9.22;69.41
77979;BME280;67169;50.268;8.694;2023-05-24T00:23:25;100183.47;;;9.11;69.57
77979;BME280;67169;50.268;8.694;2023-05-24T00:25:52;100125.34;;;8.75;69.13
77979;BME280;67169;50.268;8.694;2023-05-24T00:28:18;100195.84;;;9.16;69.01
77979;BME280;67169;50.268;8.694;2023-05-24T00:30:45;100142.91;;;8.87;67.45
77979;BME280;67169;50.268;8.694;2023-05-24T00:33:13;100193.19;;;9.15;68.46
77979;BME280;67169;50.268;8.694;2023-05-24T00:35:40;100192.41;;;9.11;68.52
77979;BME280;67169;50.268;8.694;2023-05-24T00:38:06;100172.28;;;8.93;68.23
77979;BME280;67169;50.268;8.694;2023-05-24T00:40:33;100194.47;;;9.00;69.11
77979;BME280;67169;50.268;8.694;2023-05-24T00:42:59;100199.97;;;8.95;68.78
77979;BME280;67169;50.268;8.694;2023-05-24T00:45:26;100200.03;;;8.92;68.73
77979;BME280;67169;50.268;8.694;2023-05-24T00:47:53;100198.44;;;8.85;69.08
77979;BME280;67169;50.268;8.694;2023-05-24T00:50:21;100197.50;;;8.86;68.39
77979;BME280;67169;50.268;8.694;2023-05-24T00:52:48;100200.19;;;8.86;68.27
77979;BME280;67169;50.268;8.694;2023-05-24T00:55:16;100189.63;;;8.78;68.33
77979;BME280;67169;50.268;8.694;2023-05-24T00:57:43;100187.91;;;8.76;68.03
77979;BME280;67169;50.268;8.694;2023-05-24T01:00:11;100202.19;;;8.76;67.81
77979;BME280;67169;50.268;8.694;2023-05-24T01:02:38;100205.94;;;8.69;68.14
77979;BME280;67169;50.268;8.694;2023-05-24T01:05:05;100212.19;;;8.70;68.05
77979;BME280;67169;50.268;8.694;2023-05-24T01:07:40;100198.97;;;8.62;68.44
77979;BME280;67169;50.268;8.694;2023-05-24T01:10:16;100122.34;;;8.12;68.38
77979;BME280;67169;50.268;8.694;2023-05-24T01:12:55;100110.75;;;8.11;68.96
77979;BME280;67169;50.268;8.694;2023-05-24T01:15:30;100204.63;;;8.48;68.98
77979;BME280;67169;50.268;8.694;2023-05-24T01:18:03;100193.16;;;8.43;69.53
77979;BME280;67169;50.268;8.694;2023-05-24T01:20:32;100191.28;;;8.45;70.10
77979;BME280;67169;50.268;8.694;2023-05-24T01:23:14;100193.22;;;8.40;70.51
77979;BME280;67169;50.268;8.694;2023-05-24T01:25:53;100180.03;;;8.28;71.16
77979;BME280;67169;50.268;8.694;2023-05-24T01:28:28;100202.28;;;8.33;71.52
77979;BME280;67169;50.268;8.694;2023-05-24T01:30:55;100196.06;;;8.31;71.37
77979;BME280;67169;50.268;8.694;2023-05-24T01:33:21;100193.31;;;8.34;71.63
77979;BME280;67169;50.268;8.694;2023-05-24T01:35:48;100186.22;;;8.31;71.53
77979;BME280;67169;50.268;8.694;2023-05-24T01:38:15;100084.00;;;7.69;71.64
77979;BME280;67169;50.268;8.694;2023-05-24T01:40:42;100191.75;;;8.24;71.73
77979;BME280;67169;50.268;8.694;2023-05-24T01:43:14;100169.72;;;8.09;71.91
77979;BME280;67169;50.268;8.694;2023-05-24T01:45:51;100116.06;;;7.71;72.64
77979;BME280;67169;50.268;8.694;2023-05-24T01:48:27;100122.13;;;7.80;72.47
77979;BME280;67169;50.268;8.694;2023-05-24T01:50:57;100193.91;;;8.06;72.52
77979;BME280;67169;50.268;8.694;2023-05-24T01:53:27;100146.22;;;7.82;73.26
77979;BME280;67169;50.268;8.694;2023-05-24T01:55:58;100212.75;;;8.02;73.13
77979;BME280;67169;50.268;8.694;2023-05-24T01:58:28;100201.06;;;8.04;73.36
77979;BME280;67169;50.268;8.694;2023-05-24T02:00:57;100112.13;;;7.47;73.67
77979;BME280;67169;50.268;8.694;2023-05-24T02:03:24;100197.81;;;7.90;73.88
77979;BME280;67169;50.268;8.694;2023-05-24T02:05:50;100190.00;;;7.79;74.13
77979;BME280;67169;50.268;8.694;2023-05-24T02:08:17;100194.34;;;7.85;74.05
77979;BME280;67169;50.268;8.694;2023-05-24T02:10:45;100187.25;;;7.81;74.16
77979;BME280;67169;50.268;8.694;2023-05-24T02:13:11;100187.47;;;7.72;74.39
77979;BME280;67169;50.268;8.694;2023-05-24T02:15:40;100190.19;;;7.69;74.18
77979;BME280;67169;50.268;8.694;2023-05-24T02:18:09;100153.38;;;7.35;74.69
77979;BME280;67169;50.268;8.694;2023-05-24T02:20:37;100196.59;;;7.61;75.32
77979;BME280;67169;50.268;8.694;2023-05-24T02:23:04;100185.94;;;7.58;75.46
77979;BME280;67169;50.268;8.694;2023-05-24T02:25:31;100187.69;;;7.59;75.09
77979;BME280;67169;50.268;8.694;2023-05-24T02:27:58;100189.50;;;7.59;75.87
77979;BME280;67169;50.268;8.694;2023-05-24T02:30:24;100153.25;;;7.41;75.74
77979;BME280;67169;50.268;8.694;2023-05-24T02:32:51;100189.47;;;7.60;75.81
77979;BME280;67169;50.268;8.694;2023-05-24T02:35:19;100179.97;;;7.44;75.86
77979;BME280;67169;50.268;8.694;2023-05-24T02:37:46;100100.38;;;7.07;75.57
77979;BME280;67169;50.268;8.694;2023-05-24T02:40:13;100185.88;;;7.61;76.03
77979;BME280;67169;50.268;8.694;2023-05-24T02:42:40;100186.72;;;7.64;76.11
77979;BME280;67169;50.268;8.694;2023-05-24T02:45:07;100191.28;;;7.58;76.70
77979;BME280;67169;50.268;8.694;2023-05-24T02:47:33;100184.25;;;7.54;75.70
77979;BME280;67169;50.268;8.694;2023-05-24T02:50:00;100185.00;;;7.61;75.58
77979;BME280;67169;50.268;8.694;2023-05-24T02:52:28;100186.81;;;7.59;75.28
77979;BME280;67169;50.268;8.694;2023-05-24T02:54:55;100193.88;;;7.63;75.00
77979;BME280;67169;50.268;8.694;2023-05-24T02:57:21;100193.81;;;7.66;74.60
77979;BME280;67169;50.268;8.694;2023-05-24T02:59:48;100197.44;;;7.64;75.17
77979;BME280;67169;50.268;8.694;2023-05-24T03:02:15;100164.69;;;7.49;74.92
77979;BME280;67169;50.268;8.694;2023-05-24T03:04:42;100198.44;;;7.56;74.51
77979;BME280;67169;50.268;8.694;2023-05-24T03:07:08;100195.00;;;7.51;74.77
77979;BME280;67169;50.268;8.694;2023-05-24T03:09:37;100197.72;;;7.48;74.57
77979;BME280;67169;50.268;8.694;2023-05-24T03:12:04;100200.41;;;7.48;74.43
77979;BME280;67169;50.268;8.694;2023-05-24T03:14:31;100192.47;;;7.42;75.23
77979;BME280;67169;50.268;8.694;2023-05-24T03:16:57;100190.84;;;7.35;74.84
77979;BME280;67169;50.268;8.694;2023-05-24T03:19:24;100197.16;;;7.31;75.35
77979;BME280;67169;50.268;8.694;2023-05-24T03:21:50;100194.63;;;7.23;74.75
77979;BME280;67169;50.268;8.694;2023-05-24T03:24:17;100195.59;;;7.18;74.26
77979;BME280;67169;50.268;8.694;2023-05-24T03:26:46;100180.56;;;7.10;73.94
77979;BME280;67169;50.268;8.694;2023-05-24T03:29:12;100132.31;;;6.65;73.87
77979;BME280;67169;50.268;8.694;2023-05-24T03:31:39;100098.13;;;6.30;73.96
77979;BME280;67169;50.268;8.694;2023-05-24T03:34:06;100185.50;;;6.82;74.79
77979;BME280;67169;50.268;8.694;2023-05-24T03:36:32;100184.66;;;6.79;74.55
77979;BME280;67169;50.268;8.694;2023-05-24T03:39:00;100182.03;;;6.76;74.53
77979;BME280;67169;50.268;8.694;2023-05-24T03:41:28;100183.78;;;6.77;73.65
77979;BME280;67169;50.268;8.694;2023-05-24T03:43:56;100186.50;;;6.75;73.79
77979;BME280;67169;50.268;8.694;2023-05-24T03:46:23;100177.66;;;6.70;73.66
77979;BME280;67169;50.268;8.694;2023-05-24T03:48:49;100179.41;;;6.73;73.82
77979;BME280;67169;50.268;8.694;2023-05-24T03:51:16;100191.06;;;6.67;73.82
77979;BME280;67169;50.268;8.694;2023-05-24T03:53:42;100192.91;;;6.63;73.74
77979;BME280;67169;50.268;8.694;2023-05-24T03:56:09;100162.94;;;6.43;73.80
77979;BME280;67169;50.268;8.694;2023-05-24T03:58:35;100210.78;;;6.61;73.74
77979;BME280;67169;50.268;8.694;2023-05-24T04:01:04;100195.78;;;6.50;74.31
77979;BME280;67169;50.268;8.694;2023-05-24T04:03:30;100212.50;;;6.64;73.44
77979;BME280;67169;50.268;8.694;2023-05-24T04:05:58;100210.78;;;6.61;73.86
77979;BME280;67169;50.268;8.694;2023-05-24T04:08:25;100140.13;;;6.21;73.39
77979;BME280;67169;50.268;8.694;2023-05-24T04:10:51;100206.31;;;6.60;73.20
77979;BME280;67169;50.268;8.694;2023-05-24T04:13:18;100228.44;;;6.72;73.77
77979;BME280;67169;50.268;8.694;2023-05-24T04:15:44;100185.00;;;6.57;73.66
77979;BME280;67169;50.268;8.694;2023-05-24T04:18:12;100182.25;;;6.60;73.62
77979;BME280;67169;50.268;8.694;2023-05-24T04:20:39;100214.88;;;6.84;73.28
77979;BME280;67169;50.268;8.694;2023-05-24T04:23:05;100220.22;;;6.85;73.23
77979;BME280;67169;50.268;8.694;2023-05-24T04:25:32;100204.00;;;6.95;72.64
77979;BME280;67169;50.268;8.694;2023-05-24T04:27:59;100217.28;;;7.01;73.22
77979;BME280;67169;50.268;8.694;2023-05-24T04:30:26;100149.25;;;6.64;72.84
77979;BME280;67169;50.268;8.694;2023-05-24T04:32:54;100224.31;;;7.06;72.80
77979;BME280;67169;50.268;8.694;2023-05-24T04:35:22;100211.78;;;7.08;72.17
77979;BME280;67169;50.268;8.694;2023-05-24T04:37:49;100215.34;;;7.10;72.86
77979;BME280;67169;50.268;8.694;2023-05-24T04:40:16;100208.88;;;7.22;72.34
77979;BME280;67169;50.268;8.694;2023-05-24T04:42:47;100209.72;;;7.26;72.12
77979;BME280;67169;50.268;8.694;2023-05-24T04:45:14;100216.91;;;7.24;72.20
77979;BME280;67169;50.268;8.694;2023-05-24T04:47:40;100218.56;;;7.31;72.24
77979;BME280;67169;50.268;8.694;2023-05-24T04:50:07;100224.69;;;7.36;72.28
77979;BME280;67169;50.268;8.694;2023-05-24T04:52:35;100222.84;;;7.41;72.47
77979;BME280;67169;50.268;8.694;2023-05-24T04:55:02;100231.53;;;7.54;71.84
77979;BME280;67169;50.268;8.694;2023-05-24T04:57:29;100226.19;;;7.54;71.39
77979;BME280;67169;50.268;8.694;2023-05-24T04:59:55;100229.63;;;7.60;71.93
77979;BME280;67169;50.268;8.694;2023-05-24T05:02:22;100232.31;;;7.60;72.12
77979;BME280;67169;50.268;8.694;2023-05-24T05:04:50;100234.06;;;7.61;70.79
77979;BME280;67169;50.268;8.694;2023-05-24T05:07:17;100237.53;;;7.67;71.82
77979;BME280;67169;50.268;8.694;2023-05-24T05:09:45;100240.19;;;7.68;71.30
77979;BME280;67169;50.268;8.694;2023-05-24T05:12:11;100239.38;;;7.63;70.77
77979;BME280;67169;50.268;8.694;2023-05-24T05:14:38;100235.72;;;7.69;71.36
77979;BME280;67169;50.268;8.694;2023-05-24T05:17:05;100241.78;;;7.78;70.72
77979;BME280;67169;50.268;8.694;2023-05-24T05:19:31;100211.00;;;7.54;70.67
77979;BME280;67169;50.268;8.694;2023-05-24T05:21:58;100249.81;;;7.78;69.57
77979;BME280;67169;50.268;8.694;2023-05-24T05:24:24;100225.00;;;7.67;70.18
77979;BME280;67169;50.268;8.694;2023-05-24T05:26:52;100245.00;;;7.96;70.50
77979;BME280;67169;50.268;8.694;2023-05-24T05:29:19;100252.91;;;8.03;70.30
77979;BME280;67169;50.268;8.694;2023-05-24T05:31:45;100248.34;;;8.07;70.01
77979;BME280;67169;50.268;8.694;2023-05-24T05:34:12;100244.63;;;8.16;70.27
77979;BME280;67169;50.268;8.694;2023-05-24T05:36:38;100244.63;;;8.16;69.12
77979;BME280;67169;50.268;8.694;2023-05-24T05:39:07;100263.16;;;8.25;68.94
77979;BME280;67169;50.268;8.694;2023-05-24T05:41:36;100258.91;;;8.15;69.04
77979;BME280;67169;50.268;8.694;2023-05-24T05:44:04;100263.38;;;8.16;69.09
77979;BME280;67169;50.268;8.694;2023-05-24T05:46:30;100270.50;;;8.17;69.51
77979;BME280;67169;50.268;8.694;2023-05-24T05:48:57;100265.91;;;8.22;69.87
77979;BME280;67169;50.268;8.694;2023-05-24T05:51:24;100261.41;;;8.24;69.54
77979;BME280;67169;50.268;8.694;2023-05-24T05:53:50;100270.34;;;8.24;69.12
77979;BME280;67169;50.268;8.694;2023-05-24T05:56:17;100264.22;;;8.18;69.76
77979;BME280;67169;50.268;8.694;2023-05-24T05:58:43;100275.16;;;8.52;68.52
77979;BME280;67169;50.268;8.694;2023-05-24T06:01:11;100249.59;;;8.32;68.08
77979;BME280;67169;50.268;8.694;2023-05-24T06:03:37;100278.63;;;8.55;67.50
77979;BME280;67169;50.268;8.694;2023-05-24T06:06:04;100288.06;;;8.73;68.21
77979;BME280;67169;50.268;8.694;2023-05-24T06:08:30;100284.28;;;8.84;67.33
77979;BME280;67169;50.268;8.694;2023-05-24T06:10:59;100284.75;;;9.02;66.06
77979;BME280;67169;50.268;8.694;2023-05-24T06:13:25;100283.25;;;8.89;65.24
77979;BME280;67169;50.268;8.694;2023-05-24T06:15:53;100286.63;;;8.97;64.67
77979;BME280;67169;50.268;8.694;2023-05-24T06:18:21;100286.38;;;9.10;65.65
77979;BME280;67169;50.268;8.694;2023-05-24T06:20:47;100282.78;;;9.46;64.78
77979;BME280;67169;50.268;8.694;2023-05-24T06:23:13;100282.81;;;9.45;64.07
77979;BME280;67169;50.268;8.694;2023-05-24T06:25:40;100272.41;;;9.33;64.68
77979;BME280;67169;50.268;8.694;2023-05-24T06:28:08;100271.03;;;9.50;63.62
77979;BME280;67169;50.268;8.694;2023-05-24T06:30:34;100284.66;;;9.43;62.72
77979;BME280;67169;50.268;8.694;2023-05-24T06:33:01;100245.66;;;9.28;63.33
77979;BME280;67169;50.268;8.694;2023-05-24T06:35:29;100283.84;;;9.75;62.98
77979;BME280;67169;50.268;8.694;2023-05-24T06:37:56;100280.72;;;9.90;61.70
77979;BME280;67169;50.268;8.694;2023-05-24T06:40:22;100272.56;;;9.95;61.18
77979;BME280;67169;50.268;8.694;2023-05-24T06:42:49;100277.13;;;9.91;61.29
77979;BME280;67169;50.268;8.694;2023-05-24T06:45:16;100276.66;;;10.08;61.69
77979;BME280;67169;50.268;8.694;2023-05-24T06:47:42;100229.41;;;9.34;61.22
77979;BME280;67169;50.268;8.694;2023-05-24T06:50:09;100277.25;;;9.52;62.58
77979;BME280;67169;50.268;8.694;2023-05-24T06:52:37;100272.56;;;9.95;61.49
77979;BME280;67169;50.268;8.694;2023-05-24T06:55:03;100276.94;;;9.97;61.67
77979;BME280;67169;50.268;8.694;2023-05-24T06:57:30;100276.69;;;10.07;61.45
77979;BME280;67169;50.268;8.694;2023-05-24T06:59:57;100276.03;;;10.31;60.05
77979;BME280;67169;50.268;8.694;2023-05-24T07:02:23;100278.63;;;10.36;60.73
77979;BME280;67169;50.268;8.694;2023-05-24T07:04:51;100274.09;;;10.67;60.04
77979;BME280;67169;50.268;8.694;2023-05-24T07:07:18;100282.41;;;10.58;59.80
77979;BME280;67169;50.268;8.694;2023-05-24T07:09:46;100291.50;;;10.21;60.66
77979;BME280;67169;50.268;8.694;2023-05-24T07:12:13;100297.94;;;10.16;60.95
77979;BME280;67169;50.268;8.694;2023-05-24T07:14:40;100317.47;;;10.22;60.76
77979;BME280;67169;50.268;8.694;2023-05-24T07:17:06;100307.97;;;10.42;60.33
77979;BME280;67169;50.268;8.694;2023-05-24T07:19:33;100315.47;;;10.63;60.37
77979;BME280;67169;50.268;8.694;2023-05-24T07:22:00;100313.16;;;10.50;60.15
77979;BME280;67169;50.268;8.694;2023-05-24T07:24:27;100319.09;;;10.90;58.83
77979;BME280;67169;50.268;8.694;2023-05-24T07:26:55;100319.00;;;10.93;59.51
77979;BME280;67169;50.268;8.694;2023-05-24T07:29:22;100321.16;;;10.82;58.35
77979;BME280;67169;50.268;8.694;2023-05-24T07:31:50;100317.72;;;10.77;59.11
77979;BME280;67169;50.268;8.694;2023-05-24T07:34:17;100303.78;;;10.63;60.95
77979;BME280;67169;50.268;8.694;2023-05-24T07:36:44;100331.69;;;10.90;59.97
77979;BME280;67169;50.268;8.694;2023-05-24T07:39:12;100319.22;;;10.56;58.74
77979;BME280;67169;50.268;8.694;2023-05-24T07:41:40;100330.88;;;10.57;59.50
77979;BME280;67169;50.268;8.694;2023-05-24T07:44:08;100327.53;;;10.49;60.11
77979;BME280;67169;50.268;8.694;2023-05-24T07:46:34;100330.75;;;10.30;61.22
77979;BME280;67169;50.268;8.694;2023-05-24T07:49:02;100320.78;;;10.34;62.05
77979;BME280;67169;50.268;8.694;2023-05-24T07:51:28;100330.06;;;10.22;62.06
77979;BME280;67169;50.268;8.694;2023-05-24T07:53:56;100327.38;;;10.20;61.04
77979;BME280;67169;50.268;8.694;2023-05-24T07:56:23;100324.13;;;10.08;61.29
77979;BME280;67169;50.268;8.694;2023-05-24T07:58:50;100312.28;;;10.16;61.83
77979;BME280;67169;50.268;8.694;2023-05-24T08:01:22;100312.06;;;9.91;61.67
77979;BME280;67169;50.268;8.694;2023-05-24T08:03:49;100340.63;;;9.94;62.10
77979;BME280;67169;50.268;8.694;2023-05-24T08:06:15;100339.88;;;9.89;62.33
77979;BME280;67169;50.268;8.694;2023-05-24T08:08:42;100340.81;;;9.88;62.41
77979;BME280;67169;50.268;8.694;2023-05-24T08:11:10;100333.72;;;9.84;61.90
77979;BME280;67169;50.268;8.694;2023-05-24T08:13:36;100329.28;;;9.83;62.70
77979;BME280;67169;50.268;8.694;2023-05-24T08:16:03;100333.63;;;9.88;62.40
77979;BME280;67169;50.268;8.694;2023-05-24T08:18:31;100330.50;;;10.05;62.00
77979;BME280;67169;50.268;8.694;2023-05-24T08:20:57;100325.63;;;10.19;60.17
77979;BME280;67169;50.268;8.694;2023-05-24T08:23:24;100321.13;;;10.20;60.67
77979;BME280;67169;50.268;8.694;2023-05-24T08:25:51;100326.25;;;10.31;60.49
77979;BME280;67169;50.268;8.694;2023-05-24T08:28:18;100321.47;;;10.72;60.36
77979;BME280;67169;50.268;8.694;2023-05-24T08:30:45;100294.56;;;11.01;58.36
77979;BME280;67169;50.268;8.694;2023-05-24T08:33:11;100315.50;;;11.20;58.15
77979;BME280;67169;50.268;8.694;2023-05-24T08:35:39;100315.41;;;12.04;57.38
77979;BME280;67169;50.268;8.694;2023-05-24T08:38:06;100307.22;;;11.80;55.23
77979;BME280;67169;50.268;8.694;2023-05-24T08:40:33;100301.72;;;12.10;56.23
77979;BME280;67169;50.268;8.694;2023-05-24T08:43:00;100302.59;;;12.59;53.55
77979;BME280;67169;50.268;8.694;2023-05-24T08:45:28;100304.59;;;12.54;54.62
77979;BME280;67169;50.268;8.694;2023-05-24T08:47:56;100307.44;;;12.74;53.38
77979;BME280;67169;50.268;8.694;2023-05-24T08:50:22;100293.47;;;12.63;55.06
77979;BME280;67169;50.268;8.694;2023-05-24T08:52:51;100307.63;;;12.70;54.03
77979;BME280;67169;50.268;8.694;2023-05-24T08:55:19;100312.75;;;12.27;53.29
77979;BME280;67169;50.268;8.694;2023-05-24T08:57:46;100305.19;;;12.14;53.24
77979;BME280;67169;50.268;8.694;2023-05-24T09:00:14;100305.56;;;12.53;54.56
77979;BME280;67169;50.268;8.694;2023-05-24T09:02:42;100304.22;;;12.87;53.06
77979;BME280;67169;50.268;8.694;2023-05-24T09:05:09;100292.94;;;13.22;54.57
77979;BME280;67169;50.268;8.694;2023-05-24T09:07:36;100263.47;;;13.60;53.57
77979;BME280;67169;50.268;8.694;2023-05-24T09:10:06;100287.78;;;14.02;50.83
77979;BME280;67169;50.268;8.694;2023-05-24T09:12:33;100285.41;;;14.15;49.61
77979;BME280;67169;50.268;8.694;2023-05-24T09:15:01;100265.31;;;13.38;48.57
77979;BME280;67169;50.268;8.694;2023-05-24T09:17:29;100285.75;;;14.28;49.09
77979;BME280;67169;50.268;8.694;2023-05-24T09:19:57;100281.38;;;14.44;48.83
77979;BME280;67169;50.268;8.694;2023-05-24T09:22:27;100276.41;;;14.56;50.84
77979;BME280;67169;50.268;8.694;2023-05-24T09:24:57;100277.44;;;14.12;48.08
77979;BME280;67169;50.268;8.694;2023-05-24T09:27:27;100289.06;;;14.14;48.38
77979;BME280;67169;50.268;8.694;2023-05-24T09:29:54;100271.34;;;14.86;48.35
77979;BME280;67169;50.268;8.694;2023-05-24T09:32:21;100285.00;;;15.39;47.64
77979;BME280;67169;50.268;8.694;2023-05-24T09:34:50;100278.00;;;15.35;47.32
77979;BME280;67169;50.268;8.694;2023-05-24T09:37:19;100283.38;;;15.18;47.05
77979;BME280;67169;50.268;8.694;2023-05-24T09:39:46;100283.22;;;15.02;47.36
77979;BME280;67169;50.268;8.694;2023-05-24T09:42:15;100282.94;;;15.08;47.96
77979;BME280;67169;50.268;8.694;2023-05-24T09:44:46;100270.75;;;15.36;46.43
77979;BME280;67169;50.268;8.694;2023-05-24T09:47:13;100248.41;;;15.48;47.23
77979;BME280;67169;50.268;8.694;2023-05-24T09:49:40;100275.63;;;15.47;44.98
77979;BME280;67169;50.268;8.694;2023-05-24T09:52:07;100268.66;;;14.67;43.51
77979;BME280;67169;50.268;8.694;2023-05-24T09:54:34;100276.53;;;15.64;45.07
77979;BME280;67169;50.268;8.694;2023-05-24T09:57:01;100272.00;;;15.82;46.22
77979;BME280;67169;50.268;8.694;2023-05-24T09:59:31;100268.34;;;15.47;48.36
77979;BME280;67169;50.268;8.694;2023-05-24T10:02:06;100276.00;;;15.39;43.79
77979;BME280;67169;50.268;8.694;2023-05-24T10:04:34;100279.69;;;15.00;44.83
77979;BME280;67169;50.268;8.694;2023-05-24T10:07:01;100274.75;;;14.31;45.05
77979;BME280;67169;50.268;8.694;2023-05-24T10:09:28;100279.28;;;14.31;46.83
77979;BME280;67169;50.268;8.694;2023-05-24T10:12:00;100277.97;;;14.00;47.84
77979;BME280;67169;50.268;8.694;2023-05-24T10:14:31;100259.81;;;15.74;45.02
77979;BME280;67169;50.268;8.694;2023-05-24T10:16:58;100252.66;;;15.90;44.01
77979;BME280;67169;50.268;8.694;2023-05-24T10:19:26;100266.44;;;16.53;43.09
77979;BME280;67169;50.268;8.694;2023-05-24T10:21:54;100268.66;;;17.27;44.64
77979;BME280;67169;50.268;8.694;2023-05-24T10:24:25;100251.97;;;17.33;40.60
77979;BME280;67169;50.268;8.694;2023-05-24T10:26:53;100243.19;;;17.44;40.20
77979;BME280;67169;50.268;8.694;2023-05-24T10:29:28;100246.09;;;17.71;41.68
77979;BME280;67169;50.268;8.694;2023-05-24T10:31:59;100254.69;;;17.49;42.32
77979;BME280;67169;50.268;8.694;2023-05-24T10:34:28;100243.25;;;18.33;38.49
77979;BME280;67169;50.268;8.694;2023-05-24T10:36:56;100247.41;;;17.34;43.01
77979;BME280;67169;50.268;8.694;2023-05-24T10:39:24;100243.94;;;17.78;38.64
77979;BME280;67169;50.268;8.694;2023-05-24T10:41:50;100249.66;;;18.03;41.75
77979;BME280;67169;50.268;8.694;2023-05-24T10:44:18;100243.00;;;18.52;38.51
77979;BME280;67169;50.268;8.694;2023-05-24T10:47:01;100236.84;;;18.91;37.75
77979;BME280;67169;50.268;8.694;2023-05-24T10:49:30;100234.59;;;18.98;36.98
77979;BME280;67169;50.268;8.694;2023-05-24T10:52:00;100246.84;;;19.05;36.56
77979;BME280;67169;50.268;8.694;2023-05-24T10:54:27;100218.00;;;19.15;36.93
77979;BME280;67169;50.268;8.694;2023-05-24T10:56:54;100241.50;;;18.61;38.93
77979;BME280;67169;50.268;8.694;2023-05-24T10:59:28;100241.81;;;18.70;39.16
77979;BME280;67169;50.268;8.694;2023-05-24T11:01:55;100237.72;;;18.35;40.59
77979;BME280;67169;50.268;8.694;2023-05-24T11:04:23;100229.66;;;18.90;38.46
77979;BME280;67169;50.268;8.694;2023-05-24T11:06:55;100233.16;;;18.49;38.89
77979;BME280;67169;50.268;8.694;2023-05-24T11:09:22;100208.25;;;18.70;38.94
77979;BME280;67169;50.268;8.694;2023-05-24T11:11:54;100222.97;;;17.80;40.50
77979;BME280;67169;50.268;8.694;2023-05-24T11:14:23;100226.03;;;17.28;41.35
77979;BME280;67169;50.268;8.694;2023-05-24T11:16:50;100219.53;;;18.21;40.61
77979;BME280;67169;50.268;8.694;2023-05-24T11:19:18;100220.13;;;18.40;39.96
77979;BME280;67169;50.268;8.694;2023-05-24T11:21:45;100216.06;;;19.17;39.72
77979;BME280;67169;50.268;8.694;2023-05-24T11:24:15;100209.41;;;18.37;38.60
77979;BME280;67169;50.268;8.694;2023-05-24T11:26:42;100212.66;;;19.14;38.51
77979;BME280;67169;50.268;8.694;2023-05-24T11:29:09;100216.09;;;19.30;36.72
77979;BME280;67169;50.268;8.694;2023-05-24T11:31:36;100219.97;;;19.40;38.10
77979;BME280;67169;50.268;8.694;2023-05-24T11:34:04;100223.63;;;18.42;38.41
77979;BME280;67169;50.268;8.694;2023-05-24T11:36:31;100179.44;;;18.80;39.63
77979;BME280;67169;50.268;8.694;2023-05-24T11:39:00;100227.41;;;18.40;36.22
77979;BME280;67169;50.268;8.694;2023-05-24T11:41:36;100219.66;;;19.18;36.01
77979;BME280;67169;50.268;8.694;2023-05-24T11:44:03;100226.53;;;18.82;37.83
77979;BME280;67169;50.268;8.694;2023-05-24T11:46:30;100225.59;;;19.25;36.16
77979;BME280;67169;50.268;8.694;2023-05-24T11:48:57;100220.41;;;18.64;39.33
77979;BME280;67169;50.268;8.694;2023-05-24T11:51:28;100227.59;;;17.78;36.77
77979;BME280;67169;50.268;8.694;2023-05-24T11:53:55;100227.72;;;17.61;39.61
77979;BME280;67169;50.268;8.694;2023-05-24T11:56:21;100225.53;;;17.51;40.22
77979;BME280;67169;50.268;8.694;2023-05-24T11:58:49;100230.03;;;16.73;41.68
77979;BME280;67169;50.268;8.694;2023-05-24T12:01:24;100229.53;;;17.30;39.84
77979;BME280;67169;50.268;8.694;2023-05-24T12:03:51;100224.34;;;16.45;40.91
77979;BME280;67169;50.268;8.694;2023-05-24T12:06:19;100224.13;;;16.65;42.33
77979;BME280;67169;50.268;8.694;2023-05-24T12:08:46;100226.03;;;16.47;42.46
77979;BME280;67169;50.268;8.694;2023-05-24T12:11:13;100222.25;;;16.34;41.47
77979;BME280;67169;50.268;8.694;2023-05-24T12:13:40;100215.50;;;17.98;42.77
77979;BME280;67169;50.268;8.694;2023-05-24T12:16:10;100210.41;;;19.20;35.57
77979;BME280;67169;50.268;8.694;2023-05-24T12:18:37;100217.97;;;19.30;38.38
77979;BME280;67169;50.268;8.694;2023-05-24T12:21:08;100217.38;;;18.12;37.41
77979;BME280;67169;50.268;8.694;2023-05-24T12:23:36;100181.28;;;17.64;40.78
77979;BME280;67169;50.268;8.694;2023-05-24T12:26:03;100165.44;;;18.58;38.58
77979;BME280;67169;50.268;8.694;2023-05-24T12:28:33;100213.22;;;18.63;37.53
77979;BME280;67169;50.268;8.694;2023-05-24T12:31:04;100214.69;;;18.83;37.82
77979;BME280;67169;50.268;8.694;2023-05-24T12:33:32;100197.25;;;19.13;36.81
77979;BME280;67169;50.268;8.694;2023-05-24T12:36:00;100204.25;;;18.04;36.56
77979;BME280;67169;50.268;8.694;2023-05-24T12:38:26;100214.00;;;17.78;40.05
77979;BME280;67169;50.268;8.694;2023-05-24T12:40:53;100190.41;;;17.32;38.26
77979;BME280;67169;50.268;8.694;2023-05-24T12:43:20;100187.72;;;17.63;38.24
77979;BME280;67169;50.268;8.694;2023-05-24T12:45:47;100200.25;;;18.67;37.47
77979;BME280;67169;50.268;8.694;2023-05-24T12:48:13;100203.28;;;18.19;37.94
77979;BME280;67169;50.268;8.694;2023-05-24T12:50:42;100210.75;;;18.01;38.89
77979;BME280;67169;50.268;8.694;2023-05-24T12:53:08;100208.06;;;18.59;38.30
77979;BME280;67169;50.268;8.694;2023-05-24T12:55:35;100192.31;;;19.05;36.58
77979;BME280;67169;50.268;8.694;2023-05-24T12:58:02;100197.25;;;19.13;34.98